Time;durP1;ratioP1;P1;durP2;ratioP2;P2;SDS_P1;SDS_P2;PMS_P1;PMS_P2;Temp;Humidity;BMP_temperature;BMP_pressure;BME280_temperature;BME280_humidity;BME280_pressure;Samples;Min_cycle;Max_cycle;Signal;HPM_P1;HPM_P2
2022/04/23 00:00:02;;;;;;;29.80;19.00;;;;;;;5.53;62.18;99608.69;130456;1268;107226;-73
2022/04/23 00:03:27;;;;;;;27.90;18.30;;;;;;;5.56;62.31;99608.23;130383;1268;110352;-73
2022/04/23 00:06:33;;;;;;;30.50;18.30;;;;;;;5.62;62.30;99604.71;130406;1268;109125;-72
2022/04/23 00:09:38;;;;;;;28.90;17.40;;;;;;;5.69;62.44;99603.86;130423;1268;108765;-72
2022/04/23 00:12:46;;;;;;;27.60;17.90;;;;;;;5.76;62.38;99595.52;130449;1268;108943;-72
2022/04/23 00:15:51;;;;;;;30.40;19.50;;;;;;;5.80;62.55;99593.67;130469;1268;108688;-71
2022/04/23 00:18:58;;;;;;;30.90;19.30;;;;;;;5.81;62.36;99590.61;130558;1268;108607;-68
2022/04/23 00:22:05;;;;;;;29.90;18.50;;;;;;;5.80;62.42;99586.30;130383;1267;108684;-70
2022/04/23 00:25:12;;;;;;;28.80;19.00;;;;;;;5.78;62.53;99575.58;130239;1268;107664;-71
2022/04/23 00:28:18;;;;;;;32.00;20.20;;;;;;;5.72;62.40;99567.74;130497;1268;108657;-72
2022/04/23 00:31:24;;;;;;;29.00;20.10;;;;;;;5.66;62.49;99563.88;130471;1267;107653;-73
2022/04/23 00:34:30;;;;;;;30.80;20.40;;;;;;;5.60;62.40;99563.00;130562;1268;108591;-72
2022/04/23 00:37:35;;;;;;;34.80;22.50;;;;;;;5.57;62.54;99568.47;130544;1268;108644;-71
2022/04/23 00:40:41;;;;;;;34.50;22.40;;;;;;;5.49;62.62;99568.43;130563;1268;107330;-71
2022/04/23 00:43:50;;;;;;;34.00;22.30;;;;;;;5.37;62.62;99561.59;130474;1268;108849;-71
2022/04/23 00:46:55;;;;;;;33.90;22.00;;;;;;;5.26;62.63;99561.46;130277;1268;108929;-72
2022/04/23 00:50:01;;;;;;;36.10;22.20;;;;;;;5.19;62.84;99552.03;130488;1268;108730;-72
2022/04/23 00:53:07;;;;;;;34.80;21.70;;;;;;;5.14;62.78;99557.05;130468;1268;108591;-72
2022/04/23 00:56:13;;;;;;;34.00;21.30;;;;;;;5.00;62.72;99557.89;130430;1268;108512;-74
2022/04/23 00:59:18;;;;;;;35.00;22.00;;;;;;;4.88;62.80;99561.05;130491;1268;107693;-71
2022/04/23 01:02:24;;;;;;;33.00;20.30;;;;;;;4.81;62.75;99554.50;130412;1268;108539;-73
2022/04/23 01:05:30;;;;;;;33.70;20.10;;;;;;;4.70;62.90;99554.14;130426;1268;108841;-72
2022/04/23 01:08:36;;;;;;;34.90;21.50;;;;;;;4.64;62.81;99552.99;130457;1268;108680;-72
2022/04/23 01:11:42;;;;;;;34.50;21.00;;;;;;;4.55;62.85;99549.64;130442;1268;108549;-73
2022/04/23 01:15:01;;;;;;;32.20;19.70;;;;;;;4.50;62.99;99543.77;130473;1268;108656;-73
2022/04/23 01:18:07;;;;;;;30.70;18.80;;;;;;;4.42;63.06;99538.23;130445;1268;108980;-73
2022/04/23 01:21:13;;;;;;;30.10;19.00;;;;;;;4.38;63.03;99537.90;130341;1268;108732;-75
2022/04/23 01:24:21;;;;;;;28.60;16.70;;;;;;;4.37;63.02;99528.52;130551;1268;108727;-71
2022/04/23 01:27:28;;;;;;;27.70;17.60;;;;;;;4.38;62.89;99528.45;130464;1268;108945;-73
2022/04/23 01:30:34;;;;;;;30.00;18.20;;;;;;;4.36;63.01;99524.85;130428;1268;108712;-73
2022/04/23 01:33:39;;;;;;;29.70;18.90;;;;;;;4.34;63.22;99522.56;130466;1267;108730;-72
2022/04/23 01:36:45;;;;;;;31.40;18.80;;;;;;;4.35;63.00;99520.90;130433;1268;107267;-73
2022/04/23 01:39:51;;;;;;;28.80;18.50;;;;;;;4.37;63.04;99521.08;130573;1268;106881;-74
2022/04/23 01:42:56;;;;;;;28.10;17.60;;;;;;;4.42;63.05;99513.48;130544;1268;109101;-75
2022/04/23 01:46:02;;;;;;;27.80;18.10;;;;;;;4.44;63.01;99512.21;130379;1268;108929;-73
2022/04/23 01:49:07;;;;;;;28.90;18.20;;;;;;;4.48;63.33;99509.62;130436;1268;108898;-74
2022/04/23 01:52:13;;;;;;;30.80;19.00;;;;;;;4.49;63.43;99509.29;130472;1268;108857;-73
2022/04/23 01:55:19;;;;;;;29.70;19.10;;;;;;;4.51;63.37;99506.52;130452;1268;108087;-71
2022/04/23 01:58:25;;;;;;;31.50;19.30;;;;;;;4.53;63.40;99499.13;130570;1267;107007;-71
2022/04/23 02:01:30;;;;;;;30.20;18.70;;;;;;;4.50;63.59;99501.13;130561;1268;108894;-71
2022/04/23 02:04:36;;;;;;;28.70;19.00;;;;;;;4.45;63.48;99497.73;130495;1268;108938;-70
2022/04/23 02:07:43;;;;;;;28.20;17.80;;;;;;;4.40;63.57;99494.04;130266;1268;108825;-73
2022/04/23 02:10:48;;;;;;;32.50;19.60;;;;;;;4.35;63.73;99496.43;130535;1268;108801;-74
2022/04/23 02:13:54;;;;;;;29.30;18.90;;;;;;;4.26;64.36;99493.50;130441;1268;108742;-72
2022/04/23 02:17:00;;;;;;;30.60;18.70;;;;;;;4.19;64.31;99492.16;130501;1268;108576;-72
2022/04/23 02:20:08;;;;;;;28.60;17.70;;;;;;;4.15;64.32;99483.55;130474;1268;109117;-71
2022/04/23 02:23:13;;;;;;;26.80;17.80;;;;;;;4.19;64.54;99481.28;130488;1268;108882;-71
2022/04/23 02:26:20;;;;;;;25.00;15.70;;;;;;;4.22;64.53;99480.45;130443;1268;108976;-72
2022/04/23 02:29:25;;;;;;;29.30;18.20;;;;;;;4.26;64.55;99479.61;130369;1268;108743;-72
2022/04/23 02:32:31;;;;;;;30.40;18.60;;;;;;;4.29;64.50;99482.67;130579;1268;108528;-72
2022/04/23 02:35:36;;;;;;;28.90;18.50;;;;;;;4.31;64.37;99480.59;130554;1268;107541;-71
2022/04/23 02:38:42;;;;;;;27.10;17.50;;;;;;;4.28;64.26;99479.75;130527;1268;108780;-71
2022/04/23 02:41:48;;;;;;;27.30;18.10;;;;;;;4.26;64.55;99483.50;130338;1267;108669;-72
2022/04/23 02:44:53;;;;;;;28.30;17.60;;;;;;;4.23;64.44;99483.34;130471;1268;108828;-72
2022/04/23 02:47:59;;;;;;;29.40;18.00;;;;;;;4.17;64.61;99488.09;130420;1268;108807;-70
2022/04/23 02:51:04;;;;;;;26.00;16.90;;;;;;;4.11;64.79;99484.74;130309;1267;108741;-71
2022/04/23 02:54:12;;;;;;;30.80;18.20;;;;;;;4.07;64.98;99482.42;130317;1267;109155;-73
2022/04/23 02:57:18;;;;;;;25.00;17.10;;;;;;;4.03;65.07;99478.23;130303;1268;108784;-72
2022/04/23 03:00:23;;;;;;;27.30;18.00;;;;;;;4.00;65.01;99479.39;130305;1268;108757;-73
2022/04/23 03:03:29;;;;;;;27.90;18.70;;;;;;;3.99;65.16;99475.46;130310;1267;108869;-73
2022/04/23 03:06:35;;;;;;;27.00;17.60;;;;;;;3.94;65.05;99473.04;130301;1268;108702;-72
2022/04/23 03:09:40;;;;;;;27.60;17.40;;;;;;;3.88;64.87;99472.27;130282;1266;105966;-73
2022/04/23 03:12:46;;;;;;;28.40;17.90;;;;;;;3.82;64.99;99468.88;130317;1268;108820;-73
2022/04/23 03:15:52;;;;;;;28.90;16.90;;;;;;;3.77;65.10;99465.27;130329;1268;107581;-73
2022/04/23 03:18:57;;;;;;;27.70;16.80;;;;;;;3.73;65.40;99461.00;130275;1268;108772;-71
2022/04/23 03:22:03;;;;;;;22.10;14.00;;;;;;;3.73;65.64;99455.18;130071;1268;108801;-71
2022/04/23 03:25:12;;;;;;;24.50;15.90;;;;;;;3.78;65.44;99457.81;130340;1267;108971;-69
2022/04/23 03:28:17;;;;;;;27.90;17.10;;;;;;;3.81;65.67;99463.04;130210;1267;107414;-69
2022/04/23 03:31:23;;;;;;;23.10;16.40;;;;;;;3.82;65.57;99457.97;130154;1268;108997;-72
2022/04/23 03:34:28;;;;;;;24.40;16.60;;;;;;;3.83;66.46;99464.74;130234;1268;106999;-74
2022/04/23 03:37:34;;;;;;;23.70;16.40;;;;;;;3.83;66.35;99463.36;130490;1268;107633;-72
2022/04/23 03:40:40;;;;;;;27.80;18.80;;;;;;;3.84;67.82;99463.11;130530;1267;108875;-70
2022/04/23 03:43:45;;;;;;;25.30;17.00;;;;;;;3.84;66.85;99459.73;130058;1267;110632;-70
2022/04/23 03:46:51;;;;;;;24.80;16.70;;;;;;;3.88;68.58;99463.28;130101;1268;108596;-73
2022/04/23 03:49:56;;;;;;;25.90;17.20;;;;;;;3.86;69.27;99469.08;130377;1268;108752;-71
2022/04/23 03:53:02;;;;;;;24.00;15.60;;;;;;;3.86;69.27;99466.60;130362;1268;108759;-71
2022/04/23 03:56:09;;;;;;;25.10;17.40;;;;;;;3.91;68.90;99464.23;130479;1268;107258;-71
2022/04/23 03:59:14;;;;;;;26.20;16.90;;;;;;;3.99;69.48;99462.79;130501;1268;107487;-71
2022/04/23 04:02:20;;;;;;;330.30;158.50;;;;;;;4.05;68.61;99453.42;130404;1268;108541;-72
2022/04/23 04:05:26;;;;;;;52.40;28.20;;;;;;;4.18;68.88;99452.82;130427;1268;108836;-72
2022/04/23 04:08:31;;;;;;;30.40;18.90;;;;;;;4.24;68.53;99461.44;130336;1267;107652;-71
2022/04/23 04:14:57;;;;;;;29.20;17.30;;;;;;;4.41;68.95;99470.60;129987;1267;108824;-71
2022/04/23 04:18:03;;;;;;;27.90;17.80;;;;;;;4.48;70.22;99472.11;130372;1268;108816;-73
2022/04/23 04:21:09;;;;;;;21.70;14.70;;;;;;;4.51;68.89;99473.60;130304;1267;107245;-71
2022/04/23 04:24:16;;;;;;;23.90;15.80;;;;;;;4.59;69.37;99466.92;130285;1267;108685;-71
2022/04/23 04:27:22;;;;;;;23.70;16.80;;;;;;;4.66;69.09;99463.27;130517;1268;107534;-71
2022/04/23 04:30:27;;;;;;;23.20;16.20;;;;;;;4.68;69.37;99461.71;130479;1268;108860;-66
2022/04/23 04:33:33;;;;;;;23.90;17.20;;;;;;;4.70;69.38;99464.34;130088;1268;108950;-68
2022/04/23 04:36:38;;;;;;;23.30;16.30;;;;;;;4.75;68.98;99462.34;130026;1268;108810;-69
2022/04/23 04:39:45;;;;;;;28.90;18.70;;;;;;;4.86;68.95;99462.93;130250;1268;107439;-69
2022/04/23 04:42:50;;;;;;;22.80;15.80;;;;;;;4.97;69.71;99464.65;130272;1268;106698;-71
2022/04/23 04:45:56;;;;;;;30.20;18.70;;;;;;;5.00;69.42;99463.27;130445;1267;107696;-68
2022/04/23 04:49:03;;;;;;;26.20;18.10;;;;;;;5.13;69.14;99462.85;130480;1267;108538;-67
2022/04/23 04:52:09;;;;;;;37.50;22.50;;;;;;;5.28;69.16;99461.81;130165;1268;108771;-67
2022/04/23 04:55:14;;;;;;;78.40;48.30;;;;;;;5.44;68.81;99463.23;130247;1267;108835;-72
2022/04/23 04:58:20;;;;;;;54.40;35.80;;;;;;;5.67;68.53;99466.56;130423;1268;108845;-69
2022/04/23 05:01:26;;;;;;;26.70;18.80;;;;;;;5.88;68.54;99467.11;130190;1267;108940;-70
2022/04/23 05:04:32;;;;;;;137.50;76.10;;;;;;;6.01;68.26;99460.00;130509;1268;108727;-70
2022/04/23 05:07:38;;;;;;;230.30;120.70;;;;;;;6.16;68.39;99457.30;130457;1268;108677;-73
2022/04/23 05:10:43;;;;;;;42.10;25.40;;;;;;;6.36;68.19;99460.52;130525;1268;109006;-70
2022/04/23 05:13:49;;;;;;;25.90;18.70;;;;;;;6.45;68.27;99464.77;130126;1267;107331;-71
2022/04/23 05:16:54;;;;;;;24.30;17.20;;;;;;;6.44;68.07;99472.90;130460;1267;109217;-70
2022/04/23 05:20:00;;;;;;;24.60;18.20;;;;;;;6.39;68.61;99472.86;130383;1267;108725;-73
2022/04/23 05:23:06;;;;;;;20.80;13.90;;;;;;;6.35;68.53;99477.14;130545;1268;107666;-71
2022/04/23 05:26:12;;;;;;;20.00;13.80;;;;;;;6.31;69.04;99473.71;130065;1267;108704;-68
2022/04/23 05:29:17;;;;;;;22.90;16.00;;;;;;;6.34;69.02;99475.08;130335;1268;109015;-70
2022/04/23 05:32:22;;;;;;;23.30;17.20;;;;;;;6.46;68.88;99474.47;130357;1268;109044;-69
2022/04/23 05:35:28;;;;;;;22.30;15.80;;;;;;;6.62;68.51;99472.42;130131;1268;108493;-68
2022/04/23 05:38:35;;;;;;;21.40;16.20;;;;;;;6.75;68.82;99470.47;129965;1268;108786;-74
2022/04/23 05:41:40;;;;;;;21.60;16.30;;;;;;;6.82;69.19;99475.05;130329;1267;108666;-73
2022/04/23 05:44:46;;;;;;;21.50;16.90;;;;;;;6.86;68.75;99478.44;130657;1267;108794;-72
2022/04/23 05:47:51;;;;;;;23.00;16.80;;;;;;;6.82;68.77;99482.84;130501;1268;108643;-73
2022/04/23 05:50:57;;;;;;;25.10;17.20;;;;;;;6.75;68.59;99495.78;130879;1267;108732;-73
2022/04/23 05:54:03;;;;;;;20.40;14.60;;;;;;;6.76;68.53;99498.45;130647;1268;108762;-69
2022/04/23 05:57:08;;;;;;;20.70;13.50;;;;;;;6.86;68.76;99499.45;130163;1268;108798;-71
2022/04/23 06:00:15;;;;;;;22.70;16.30;;;;;;;6.91;68.81;99496.34;130663;1268;108711;-75
2022/04/23 06:03:21;;;;;;;21.60;16.60;;;;;;;6.97;68.93;99496.77;130452;1268;108785;-72
2022/04/23 06:06:26;;;;;;;23.70;16.60;;;;;;;7.02;68.96;99500.55;130429;1268;108940;-70
2022/04/23 06:09:32;;;;;;;22.30;16.40;;;;;;;7.05;68.64;99498.81;130458;1268;108302;-72
2022/04/23 06:12:37;;;;;;;21.90;16.80;;;;;;;7.13;68.80;99496.34;130302;1268;107639;-72
2022/04/23 06:15:43;;;;;;;23.70;17.10;;;;;;;7.18;68.66;99497.45;130442;1268;108981;-73
2022/04/23 06:18:50;;;;;;;26.60;19.50;;;;;;;7.25;68.48;99494.03;130490;1268;108471;-74
2022/04/23 06:21:57;;;;;;;24.20;17.80;;;;;;;7.34;68.25;99490.00;130539;1268;108817;-71
2022/04/23 06:25:03;;;;;;;31.60;22.60;;;;;;;7.36;68.23;99489.31;130281;1268;107265;-72
2022/04/23 06:28:10;;;;;;;25.00;19.20;;;;;;;7.46;68.38;99483.20;130532;1268;109541;-71
2022/04/23 06:31:15;;;;;;;21.50;15.60;;;;;;;7.61;68.20;99486.81;130502;1268;108909;-72
2022/04/23 06:34:21;;;;;;;23.40;16.90;;;;;;;7.74;68.54;99491.41;130468;1268;108803;-71
2022/04/23 06:37:26;;;;;;;28.00;22.40;;;;;;;7.89;68.16;99489.34;130328;1268;108468;-72
2022/04/23 06:40:32;;;;;;;22.30;17.20;;;;;;;7.99;67.94;99487.75;130445;1268;109125;-74
2022/04/23 06:43:37;;;;;;;22.00;17.20;;;;;;;8.06;67.86;99482.29;130357;1268;108766;-71
2022/04/23 06:46:44;;;;;;;23.50;17.10;;;;;;;8.13;67.62;99476.51;130016;1268;108878;-69
2022/04/23 06:49:49;;;;;;;20.90;16.30;;;;;;;8.13;67.49;99482.63;130381;1268;108688;-69
2022/04/23 06:52:55;;;;;;;21.30;16.60;;;;;;;8.21;67.73;99479.65;130142;1268;107508;-69
2022/04/23 06:56:01;;;;;;;20.80;16.70;;;;;;;8.44;67.71;99488.04;130098;1268;107499;-73
2022/04/23 06:59:06;;;;;;;19.80;15.80;;;;;;;8.79;67.50;99489.73;130500;1268;108713;-72
2022/04/23 07:02:12;;;;;;;20.80;15.00;;;;;;;9.00;66.78;99482.50;130277;1268;108874;-72
2022/04/23 07:05:18;;;;;;;18.80;15.50;;;;;;;9.13;66.52;99481.90;130493;1268;108765;-71
2022/04/23 07:08:23;;;;;;;16.20;13.60;;;;;;;9.30;66.93;99476.55;130600;1268;108763;-70
2022/04/23 07:11:29;;;;;;;18.60;14.20;;;;;;;9.60;66.74;99474.21;129991;1268;108818;-74
2022/04/23 07:14:34;;;;;;;17.70;14.00;;;;;;;9.84;66.58;99468.58;131142;1268;108661;-72
2022/04/23 07:17:40;;;;;;;18.20;15.30;;;;;;;10.01;65.89;99471.93;130479;1268;108874;-72
2022/04/23 07:20:45;;;;;;;16.30;13.50;;;;;;;10.02;66.02;99469.65;130506;1268;108932;-71
2022/04/23 07:24:08;;;;;;;17.90;14.70;;;;;;;10.09;65.87;99475.31;130435;1268;108631;-71
2022/04/23 07:27:13;;;;;;;15.20;11.80;;;;;;;10.19;65.67;99476.87;130430;1268;107727;-75
2022/04/23 07:30:19;;;;;;;14.80;12.30;;;;;;;10.26;65.52;99474.98;130517;1268;108668;-73
2022/04/23 07:40:12;;;;;;;22.90;18.60;;;;;;;10.33;65.17;99468.39;130561;1268;108731;-80
2022/04/23 07:43:18;;;;;;;27.10;22.90;;;;;;;10.53;64.59;99468.70;130697;1268;108596;-80
2022/04/23 07:46:24;;;;;;;21.40;16.80;;;;;;;10.66;65.16;99466.86;130689;1268;108864;-78
2022/04/23 07:49:30;;;;;;;15.30;12.90;;;;;;;10.95;65.45;99456.61;130704;1268;107660;-77
2022/04/23 07:52:35;;;;;;;15.60;13.90;;;;;;;11.16;64.00;99462.10;130436;1268;108772;-79
2022/04/23 07:55:40;;;;;;;14.70;12.40;;;;;;;11.30;63.78;99463.18;130430;1268;108791;-78
2022/04/23 07:58:46;;;;;;;13.00;11.60;;;;;;;11.32;63.09;99463.83;130467;1268;108145;-78
2022/04/23 08:01:51;;;;;;;12.90;11.10;;;;;;;11.36;63.75;99461.03;130481;1268;109081;-79
2022/04/23 08:04:57;;;;;;;12.00;10.30;;;;;;;11.54;63.66;99459.27;130506;1268;108206;-79
2022/04/23 08:08:03;;;;;;;11.90;10.10;;;;;;;11.69;63.61;99453.59;130747;1268;107588;-82
2022/04/23 08:11:08;;;;;;;15.80;13.50;;;;;;;11.67;61.89;99458.85;130607;1268;107803;-75
2022/04/23 08:14:14;;;;;;;13.50;11.60;;;;;;;11.55;62.75;99453.15;130495;1268;108641;-75
2022/04/23 08:17:19;;;;;;;14.10;11.50;;;;;;;11.65;62.74;99455.29;130591;1268;108856;-77
2022/04/23 08:20:24;;;;;;;12.10;10.50;;;;;;;11.59;62.42;99454.38;130481;1265;109380;-76
2022/04/23 08:23:33;;;;;;;14.10;12.00;;;;;;;11.63;63.04;99451.55;130514;1268;108948;-79
2022/04/23 08:26:39;;;;;;;13.50;12.00;;;;;;;11.56;62.12;99449.05;130517;1268;108997;-75
2022/04/23 08:33:08;;;;;;;13.80;11.60;;;;;;;11.65;61.60;99441.56;130268;1266;108720;-79
2022/04/23 08:36:13;;;;;;;12.30;10.70;;;;;;;11.80;63.52;99434.52;130473;1267;108892;-73
2022/04/23 08:39:18;;;;;;;12.20;10.80;;;;;;;12.15;62.83;99436.15;130555;1268;108766;-76
2022/04/23 08:42:24;;;;;;;12.70;11.30;;;;;;;12.20;61.01;99432.11;130525;1268;108765;-77
2022/04/23 08:45:30;;;;;;;12.90;11.50;;;;;;;12.26;62.01;99423.69;130538;1267;108269;-79
2022/04/23 08:48:39;;;;;;;13.20;10.60;;;;;;;12.37;61.45;99429.34;130542;1267;108716;-79
2022/04/23 08:51:48;;;;;;;18.20;15.60;;;;;;;12.47;61.09;99428.86;130710;1268;107702;-81
2022/04/23 08:54:56;;;;;;;12.80;11.50;;;;;;;12.56;60.85;99430.96;130478;1268;108650;-79
2022/04/23 08:58:02;;;;;;;12.70;11.30;;;;;;;12.53;60.61;99426.34;130526;1267;107642;-78
2022/04/23 09:01:07;;;;;;;15.10;13.60;;;;;;;12.45;60.43;99427.66;130482;1265;107462;-77
2022/04/23 09:04:13;;;;;;;12.90;11.40;;;;;;;12.33;59.92;99426.16;130451;1267;108718;-78
2022/04/23 09:07:24;;;;;;;11.30;9.70;;;;;;;12.41;60.34;99432.28;130470;1266;108634;-78
2022/04/23 09:10:46;;;;;;;11.40;10.20;;;;;;;12.47;58.97;99428.58;130516;1267;109026;-76
2022/04/23 09:13:52;;;;;;;13.00;11.00;;;;;;;12.53;60.81;99421.14;130593;1267;106715;-80
2022/04/23 09:23:46;;;;;;;13.90;11.20;;;;;;;12.48;59.29;99433.41;130603;1267;109224;-76
2022/04/23 09:27:06;;;;;;;12.50;10.40;;;;;;;12.35;60.32;99432.87;130364;1267;109070;-77
2022/04/23 09:30:13;;;;;;;10.20;8.40;;;;;;;12.34;59.52;99432.60;130568;1267;108906;-75
2022/04/23 09:33:21;;;;;;;7.50;6.70;;;;;;;12.24;59.46;99424.57;130520;1267;108830;-78
2022/04/23 09:36:46;;;;;;;7.00;6.30;;;;;;;12.15;58.99;99422.39;130608;1266;108806;-76
2022/04/23 09:39:51;;;;;;;8.20;7.40;;;;;;;12.30;58.82;99426.41;130448;1266;108616;-77
2022/04/23 09:43:05;;;;;;;9.10;8.20;;;;;;;12.63;59.91;99417.17;130468;1268;108672;-76
2022/04/23 09:46:11;;;;;;;8.60;7.80;;;;;;;12.86;57.91;99414.15;130484;1267;108714;-80
2022/04/23 09:49:21;;;;;;;9.60;8.60;;;;;;;12.75;57.88;99417.08;130485;1267;106833;-78
2022/04/23 09:52:30;;;;;;;8.90;8.00;;;;;;;12.60;58.46;99413.93;130447;1268;107671;-74
2022/04/23 09:55:37;;;;;;;10.40;9.30;;;;;;;12.66;58.71;99405.36;130469;1267;108763;-76
2022/04/23 09:58:43;;;;;;;11.00;9.40;;;;;;;12.64;58.54;99410.72;130375;1268;108249;-76
2022/04/23 10:01:50;;;;;;;9.70;8.70;;;;;;;12.52;58.65;99420.29;130466;1266;108794;-77
2022/04/23 10:04:57;;;;;;;11.00;9.80;;;;;;;12.44;58.47;99417.88;130492;1267;108743;-73
2022/04/23 10:08:04;;;;;;;10.60;9.50;;;;;;;12.41;58.50;99419.15;130513;1267;108696;-76
2022/04/23 10:11:16;;;;;;;11.10;9.90;;;;;;;12.54;58.97;99412.29;130521;1266;108738;-75
2022/04/23 10:14:24;;;;;;;11.00;9.80;;;;;;;12.76;58.79;99408.36;130534;1268;109670;-75
2022/04/23 10:17:32;;;;;;;11.60;10.20;;;;;;;12.89;58.15;99409.67;130490;1267;108872;-75
2022/04/23 10:20:40;;;;;;;15.10;12.40;;;;;;;12.95;58.31;99409.67;130391;1267;108823;-75
2022/04/23 10:23:58;;;;;;;12.00;10.50;;;;;;;13.15;57.99;99406.47;130487;1267;108958;-74
2022/04/23 10:27:07;;;;;;;15.20;13.60;;;;;;;13.35;58.00;99406.88;130588;1268;108775;-75
2022/04/23 10:30:13;;;;;;;13.10;11.60;;;;;;;13.50;57.90;99402.80;130489;1267;108552;-75
2022/04/23 10:33:29;;;;;;;13.00;11.60;;;;;;;13.60;57.34;99401.97;130505;1268;108671;-75
2022/04/23 10:36:35;;;;;;;12.10;10.90;;;;;;;13.55;56.93;99398.27;130590;1267;108785;-75
2022/04/23 10:39:42;;;;;;;12.50;11.20;;;;;;;13.58;57.09;99395.72;130681;1268;108886;-73
2022/04/23 10:43:12;;;;;;;12.10;10.90;;;;;;;13.58;56.97;99395.30;130726;1267;107734;-78
2022/04/23 10:46:56;;;;;;;11.80;10.60;;;;;;;13.82;57.58;99389.14;130516;1268;108981;-74
2022/04/23 10:50:31;;;;;;;11.50;10.20;;;;;;;13.94;55.58;99383.23;130716;1268;108724;-74
2022/04/23 10:53:55;;;;;;;15.20;13.60;;;;;;;13.82;56.61;99378.52;130538;1268;108159;-75
2022/04/23 10:57:09;;;;;;;13.00;11.60;;;;;;;13.89;57.13;99372.80;130570;1267;108788;-75
2022/04/23 11:00:18;;;;;;;12.90;11.50;;;;;;;13.81;56.84;99367.52;130613;1268;108696;-74
2022/04/23 11:03:33;;;;;;;12.80;11.50;;;;;;;13.80;56.87;99366.56;130336;1267;250271;-77
2022/04/23 11:13:52;;;;;;;12.10;10.80;;;;;;;14.09;57.16;99357.38;130426;1267;108767;-76
2022/04/23 11:16:59;;;;;;;13.20;11.90;;;;;;;14.09;56.18;99353.50;130515;1267;108738;-76
2022/04/23 11:20:06;;;;;;;12.30;11.20;;;;;;;14.04;56.41;99352.22;130588;1267;108843;-79
2022/04/23 11:23:12;;;;;;;12.20;10.90;;;;;;;14.10;55.97;99353.38;130501;1267;108676;-76
2022/04/23 11:26:22;;;;;;;15.30;13.70;;;;;;;14.17;55.78;99350.44;130501;1268;108633;-76
2022/04/23 11:29:27;;;;;;;12.70;10.80;;;;;;;14.33;54.43;99344.90;130306;1268;109009;-76
2022/04/23 11:32:34;;;;;;;11.70;10.50;;;;;;;14.40;54.09;99344.15;130407;1267;108811;-75
2022/04/23 11:35:40;;;;;;;12.80;11.20;;;;;;;14.39;53.90;99347.40;130578;1267;108985;-82
2022/04/23 11:38:46;;;;;;;12.40;10.90;;;;;;;14.29;53.30;99352.73;130738;1268;108666;-80
2022/04/23 11:41:52;;;;;;;13.30;10.70;;;;;;;14.23;54.78;99345.84;130755;1267;108785;-78
2022/04/23 11:45:02;;;;;;;12.20;11.00;;;;;;;14.29;54.30;99335.27;130610;1268;109002;-83
2022/04/23 11:48:14;;;;;;;11.50;10.30;;;;;;;14.42;54.43;99330.65;130750;1267;108673;-82
2022/04/23 11:51:21;;;;;;;11.10;10.00;;;;;;;14.64;54.55;99329.39;131091;1268;108947;-81
2022/04/23 11:54:35;;;;;;;12.10;9.90;;;;;;;14.76;53.48;99335.04;130783;1267;107365;-82
2022/04/23 11:57:41;;;;;;;12.10;10.80;;;;;;;14.70;54.50;99334.66;130681;1267;108846;-78
2022/04/23 12:00:49;;;;;;;11.40;10.20;;;;;;;14.43;52.85;99333.02;130432;1267;108701;-79
2022/04/23 12:03:57;;;;;;;11.60;10.40;;;;;;;14.12;53.20;99337.00;130455;1268;108618;-77
2022/04/23 12:07:03;;;;;;;11.30;10.10;;;;;;;13.85;53.21;99339.29;130455;1268;108862;-78
2022/04/23 12:10:10;;;;;;;11.00;9.40;;;;;;;13.65;53.48;99334.83;130438;1268;108767;-79
2022/04/23 12:13:18;;;;;;;11.90;10.00;;;;;;;13.63;54.15;99336.34;131034;1266;108737;-80
2022/04/23 12:16:38;;;;;;;10.40;9.40;;;;;;;13.70;54.42;99337.13;130559;1268;107627;-79
2022/04/23 12:19:44;;;;;;;11.30;10.10;;;;;;;13.82;53.77;99331.50;130794;1268;108692;-79
2022/04/23 12:23:03;;;;;;;11.10;10.00;;;;;;;14.02;54.41;99324.78;130903;1268;108083;-77
2022/04/23 12:26:13;;;;;;;10.60;9.50;;;;;;;14.34;53.19;99318.64;130513;1268;108784;-77
2022/04/23 12:43:25;;;;;;;9.90;8.80;;;;;;;13.72;52.40;99330.79;130497;1265;108769;-78
2022/04/23 12:46:31;;;;;;;9.90;7.40;;;;;;;13.58;53.16;99330.80;130622;1265;108726;-79
2022/04/23 12:49:52;;;;;;;8.60;7.40;;;;;;;13.62;53.52;99331.88;130611;1265;108948;-79
2022/04/23 12:52:57;;;;;;;7.60;6.30;;;;;;;13.66;53.23;99333.42;130697;1265;108084;-82
2022/04/23 12:56:05;;;;;;;10.00;7.00;;;;;;;13.76;53.25;99328.70;130314;1270;108417;-77
2022/04/23 12:59:11;;;;;;;7.10;6.10;;;;;;;13.77;51.41;99333.91;130536;1267;108970;-79
2022/04/23 13:02:16;;;;;;;6.00;5.40;;;;;;;13.74;52.56;99334.92;130489;1266;108761;-79
2022/04/23 13:05:22;;;;;;;7.60;6.50;;;;;;;13.87;52.72;99334.81;130546;1267;108882;-77
2022/04/23 13:11:52;;;;;;;9.40;7.40;;;;;;;13.77;51.45;99334.16;130421;1268;108840;-80
2022/04/23 13:14:57;;;;;;;7.90;7.10;;;;;;;13.70;51.76;99331.85;130528;1265;108849;-77
2022/04/23 13:18:03;;;;;;;8.20;7.20;;;;;;;13.66;52.07;99327.77;130724;1266;107598;-76
2022/04/23 13:21:09;;;;;;;7.00;6.30;;;;;;;13.68;51.60;99328.78;130601;1268;108886;-76
2022/04/23 13:24:16;;;;;;;7.60;6.80;;;;;;;13.67;51.66;99326.41;130431;1267;109133;-78
2022/04/23 13:27:23;;;;;;;7.80;7.00;;;;;;;13.72;51.83;99324.35;130527;1267;108709;-79
2022/04/23 13:30:29;;;;;;;7.20;6.50;;;;;;;13.59;51.32;99324.34;130524;1268;107681;-81
2022/04/23 13:33:35;;;;;;;7.60;6.70;;;;;;;13.45;51.62;99321.08;130638;1268;108717;-78
2022/04/23 13:36:41;;;;;;;9.70;7.20;;;;;;;13.40;52.31;99322.44;130757;1267;108786;-77
2022/04/23 13:39:46;;;;;;;7.80;6.40;;;;;;;13.44;52.43;99320.36;130707;1268;109023;-78
2022/04/23 13:42:52;;;;;;;8.60;7.00;;;;;;;13.61;52.32;99320.20;130642;1268;108819;-79
2022/04/23 13:45:58;;;;;;;7.80;7.00;;;;;;;13.88;52.40;99317.06;130637;1267;108802;-85
2022/04/23 13:49:04;;;;;;;7.70;6.80;;;;;;;14.12;51.88;99314.30;130781;1267;108927;-77
2022/04/23 13:52:10;;;;;;;8.50;7.50;;;;;;;14.29;51.46;99307.31;130522;1268;108852;-76
2022/04/23 13:55:15;;;;;;;8.00;7.20;;;;;;;14.43;51.08;99307.20;130519;1268;108703;-79
2022/04/23 13:58:21;;;;;;;7.60;6.80;;;;;;;14.47;50.46;99302.64;130681;1267;108676;-79
2022/04/23 14:01:26;;;;;;;7.10;6.40;;;;;;;14.51;49.17;99305.66;130608;1268;108971;-81
2022/04/23 14:11:18;;;;;;;8.40;7.40;;;;;;;14.93;49.91;99291.89;130930;1268;107678;-75
2022/04/23 14:14:25;;;;;;;7.90;7.10;;;;;;;14.92;49.11;99295.04;130994;1268;108661;-75
2022/04/23 14:17:30;;;;;;;8.10;7.30;;;;;;;15.02;50.18;99291.41;130927;1268;108679;-78
2022/04/23 14:20:36;;;;;;;7.60;6.50;;;;;;;15.20;48.62;99286.83;131010;1268;107535;-76
2022/04/23 14:23:41;;;;;;;8.90;6.60;;;;;;;15.23;48.64;99286.66;131042;1268;107739;-78
2022/04/23 14:26:47;;;;;;;7.30;6.60;;;;;;;15.18;47.95;99292.41;130945;1268;108894;-77
2022/04/23 14:29:52;;;;;;;10.70;7.50;;;;;;;15.10;49.63;99292.95;131049;1265;107732;-81
2022/04/23 14:32:57;;;;;;;9.50;7.40;;;;;;;14.94;48.97;99293.09;131187;1268;108935;-78
2022/04/23 14:36:03;;;;;;;7.80;7.00;;;;;;;14.75;49.19;99301.16;130789;1268;108578;-77
2022/04/23 14:39:09;;;;;;;7.80;7.00;;;;;;;14.60;49.97;99301.36;130611;1268;108988;-77
2022/04/23 14:42:15;;;;;;;8.00;7.20;;;;;;;14.63;50.53;99300.94;131152;1268;107639;-78
2022/04/23 14:45:21;;;;;;;8.40;6.70;;;;;;;14.62;50.27;99299.48;130669;1268;108725;-77
2022/04/23 14:48:27;;;;;;;8.80;7.00;;;;;;;14.61;50.78;99301.95;130555;1267;109650;-79
2022/04/23 14:54:56;;;;;;;8.90;7.40;;;;;;;14.67;50.70;99295.73;130862;1268;108779;-76
2022/04/23 14:58:02;;;;;;;7.20;6.40;;;;;;;14.57;51.01;99292.42;130746;1268;108645;-76
2022/04/23 15:01:07;;;;;;;8.70;7.20;;;;;;;14.41;50.79;99297.00;130869;1268;108911;-77
2022/04/23 15:04:14;;;;;;;9.20;8.10;;;;;;;14.21;51.13;99292.86;130567;1268;107594;-77